Terminal Aerodrome Forecast
Issued by NWS Central Illinois

Home | Current Version | Previous Version | Text Only | Print | Product List | Glossary On
Versions: 1 2 3 4 5 6 7 8 9 10 11 12 13 14 15 16 17 18 19 20 21 22 23 24 25 26 27 28
572
FTUS43 KILX 181056 AAC
TAFPIA
TAF AMD
KPIA 181056Z 1811/1906 02007KT 4SM -SHRA VCTS SCT005CB OVC015
      TEMPO 1811/1814 2SM TSRA BR BKN005CB
     FM181400 33008KT 2SM -SHRA BR OVC008
     FM181800 34017G27KT 2SM -SHRA BR OVC008
     FM182100 32018G27KT P6SM BKN035
     FM190000 31012KT P6SM FEW250=

USA.gov is the U.S. government's official web portal to all federal, state and local government web resources and services.